Pakpattan Weather



Pakpattan's Current Weather

Temprature 34.75o overcast clouds

overcast clouds

Rain: 0 %

Min Temprature34.75o
Max Temprature34.75o
Humidity51
Wind Speed7.26 m/h
Sun Rise05:32:18
Sun Set18:50:27
Current Time: 13-Aug-2020 19:42:45
Lat/Lon: 30.34, 73.39




Pakpattan's Geo Location



Pakpattan's Weather Forecast

Time Overall Temp Min Temp Max Temp Humidity Wind Speed Rain
13-Aug-2020 (Thu)
20:00:00 broken clouds 37.950 34.750 37.950 42 7.26 m/h 0 %
23:00:00 light rain 34.220 32.350 34.220 56 6.18 m/h 134 %
14-Aug-2020 (Fri)
02:00:00 overcast clouds 32.080 31.470 32.080 64 4.96 m/h 0 %
05:00:00 light rain 30.270 30.180 30.270 74 5.36 m/h 179 %
08:00:00 light rain 32.120 32.120 32.120 67 4.93 m/h 11 %
11:00:00 scattered clouds 37.500 37.500 37.500 46 3.41 m/h 0 %
14:00:00 few clouds 40.170 40.170 40.170 36 2.79 m/h 0 %
17:00:00 scattered clouds 39.680 39.680 39.680 37 3.27 m/h 0 %
20:00:00 light rain 35.790 35.790 35.790 49 1.4 m/h 50 %
23:00:00 scattered clouds 34.240 34.240 34.240 53 3.63 m/h 0 %
15-Aug-2020 (Sat)
02:00:00 light rain 32.660 32.660 32.660 61 3.3 m/h 13 %
05:00:00 light rain 31.860 31.860 31.860 64 3.52 m/h 11 %
08:00:00 light rain 33.340 33.340 33.340 59 4.66 m/h 38 %
11:00:00 scattered clouds 39.360 39.360 39.360 38 2.03 m/h 0 %
14:00:00 scattered clouds 40.720 40.720 40.720 34 1.96 m/h 0 %
17:00:00 light rain 39.790 39.790 39.790 37 1.59 m/h 16 %
20:00:00 few clouds 36.610 36.610 36.610 44 2.84 m/h 0 %
23:00:00 few clouds 35.070 35.070 35.070 49 5.4 m/h 0 %
16-Aug-2020 (Sun)
02:00:00 few clouds 34.080 34.080 34.080 53 3.54 m/h 0 %
05:00:00 light rain 33.920 33.920 33.920 54 4.66 m/h 11 %
08:00:00 light rain 34.850 34.850 34.850 53 4.06 m/h 45 %
11:00:00 broken clouds 36.450 36.450 36.450 47 1.6 m/h 0 %
14:00:00 broken clouds 41.030 41.030 41.030 34 0.69 m/h 0 %
17:00:00 scattered clouds 41.200 41.200 41.200 32 2.54 m/h 0 %
20:00:00 few clouds 36.510 36.510 36.510 43 1.03 m/h 0 %
23:00:00 clear sky 34.620 34.620 34.620 52 4.21 m/h 0 %
17-Aug-2020 (Mon)
02:00:00 light rain 33.460 33.460 33.460 57 3.66 m/h 13 %
05:00:00 scattered clouds 33.740 33.740 33.740 53 3.45 m/h 0 %
08:00:00 light rain 34.530 34.530 34.530 52 3.28 m/h 14 %
11:00:00 light rain 36.270 36.270 36.270 47 4.27 m/h 31 %
14:00:00 scattered clouds 40.580 40.580 40.580 35 3.25 m/h 0 %
17:00:00 scattered clouds 39.840 39.840 39.840 35 1.65 m/h 0 %
20:00:00 overcast clouds 35.330 35.330 35.330 47 4.79 m/h 0 %
23:00:00 light rain 34.160 34.160 34.160 52 4.22 m/h 22 %
18-Aug-2020 (Tue)
02:00:00 overcast clouds 32.550 32.550 32.550 58 2.58 m/h 0 %
05:00:00 light rain 31.030 31.030 31.030 65 3.15 m/h 57 %
08:00:00 clear sky 34.090 34.090 34.090 55 3.62 m/h 0 %
11:00:00 clear sky 38.660 38.660 38.660 41 3.65 m/h 0 %
14:00:00 broken clouds 39.400 39.400 39.400 39 3.35 m/h 0 %
17:00:00 broken clouds 39.370 39.370 39.370 39 2.65 m/h 0 %

Famous Cities (60)